メインページ
METAR-TAF:

METAR-TAF

空港 :

ポートスーダン, スーダン

緯度: 19-26N, 経度: 037-14E, 海抜: 138m

現時点の気象観測

当レポートは1時間10分前の16:00(UTC)に作成
の風 8kt
気温 35°C
湿度 39%
気圧 1006 hPa
視程10km以上
1,500メートル以下は雲なし、積乱雲なし

METAR: HSPN 251600Z 09008KT CAVOK 35/19 Q1006

時間: 20:10 (17:10 UTC)

予報

当レポートは18時間10分前の23:00(UTC)に作成
予報は25日の 00時(UTC)から 26日の 06時(UTC)まで有効
西/北西の風 8kt
視程10km以上
1,500メートル以下は雲なし、積乱雲なし
25日の 05時(UTC)から 25日の 10時(UTC)まで一時的に
視程: 6000m
25日の 1200時(UTC)から
東/北東の風 10kt、最大20ktの突風を伴う

TAF: HSPN 242300Z 2500/2606 30008KT CAVOK TEMPO 2505/2510 6000 NSC FM251200Z 06010G20KT

4,000以上の空港の気象観測と天気予報(METAR報とTAF報)

利用可能な観測所は地図上に黄色い丸と赤い丸で示す。

丸の上にカーソルを重ねると観測所名を参照できる。

次にクリックすると気象観測と天気予報を参照できる。

マップの切り替え:黒色「×」印の緑ボタンをクリックして拡大、「-」印の緑ボタンをクリックして縮小、緑色の三角印をクリックして隣りの地図に切り替え


METAR-TAF: